sensor_id;sensor_type;location;lat;lon;timestamp;P1;durP1;ratioP1;P2;durP2;ratioP2
54897;SDS011;40800;52.704;6.398;2024-01-27T00:01:34;45.58;;;41.42;;
54897;SDS011;40800;52.704;6.398;2024-01-27T00:04:00;44.00;;;40.50;;
54897;SDS011;40800;52.704;6.398;2024-01-27T00:06:26;44.47;;;40.55;;
54897;SDS011;40800;52.704;6.398;2024-01-27T00:08:52;45.72;;;42.08;;
54897;SDS011;40800;52.704;6.398;2024-01-27T00:11:17;44.35;;;41.10;;
54897;SDS011;40800;52.704;6.398;2024-01-27T00:13:44;44.38;;;40.38;;
54897;SDS011;40800;52.704;6.398;2024-01-27T00:16:10;43.22;;;39.92;;
54897;SDS011;40800;52.704;6.398;2024-01-27T00:18:36;44.90;;;41.65;;
54897;SDS011;40800;52.704;6.398;2024-01-27T00:21:02;43.75;;;40.30;;
54897;SDS011;40800;52.704;6.398;2024-01-27T00:23:28;44.85;;;41.08;;
54897;SDS011;40800;52.704;6.398;2024-01-27T00:25:53;46.13;;;42.55;;
54897;SDS011;40800;52.704;6.398;2024-01-27T00:28:19;44.70;;;41.35;;
54897;SDS011;40800;52.704;6.398;2024-01-27T00:30:44;46.28;;;42.35;;
54897;SDS011;40800;52.704;6.398;2024-01-27T00:33:10;45.65;;;41.97;;
54897;SDS011;40800;52.704;6.398;2024-01-27T00:35:36;47.70;;;43.83;;
54897;SDS011;40800;52.704;6.398;2024-01-27T00:38:01;46.10;;;42.33;;
54897;SDS011;40800;52.704;6.398;2024-01-27T00:40:27;45.13;;;41.30;;
54897;SDS011;40800;52.704;6.398;2024-01-27T00:42:53;45.80;;;42.13;;
54897;SDS011;40800;52.704;6.398;2024-01-27T00:45:19;46.03;;;42.50;;
54897;SDS011;40800;52.704;6.398;2024-01-27T00:47:47;46.63;;;43.13;;
54897;SDS011;40800;52.704;6.398;2024-01-27T00:50:17;44.45;;;40.97;;
54897;SDS011;40800;52.704;6.398;2024-01-27T00:52:42;45.83;;;41.90;;
54897;SDS011;40800;52.704;6.398;2024-01-27T00:55:08;44.80;;;41.15;;
54897;SDS011;40800;52.704;6.398;2024-01-27T00:57:36;44.22;;;41.05;;
54897;SDS011;40800;52.704;6.398;2024-01-27T01:00:03;44.72;;;41.22;;
54897;SDS011;40800;52.704;6.398;2024-01-27T01:02:33;45.90;;;41.88;;
54897;SDS011;40800;52.704;6.398;2024-01-27T01:04:59;44.97;;;41.33;;
54897;SDS011;40800;52.704;6.398;2024-01-27T01:07:25;43.40;;;40.05;;
54897;SDS011;40800;52.704;6.398;2024-01-27T01:09:50;43.83;;;40.17;;
54897;SDS011;40800;52.704;6.398;2024-01-27T01:12:16;44.50;;;41.03;;
54897;SDS011;40800;52.704;6.398;2024-01-27T01:14:42;46.00;;;41.95;;
54897;SDS011;40800;52.704;6.398;2024-01-27T01:17:08;44.97;;;40.95;;
54897;SDS011;40800;52.704;6.398;2024-01-27T01:19:34;45.17;;;41.63;;
54897;SDS011;40800;52.704;6.398;2024-01-27T01:22:00;44.95;;;41.17;;
54897;SDS011;40800;52.704;6.398;2024-01-27T01:24:26;46.55;;;42.67;;
54897;SDS011;40800;52.704;6.398;2024-01-27T01:26:52;45.55;;;41.63;;
54897;SDS011;40800;52.704;6.398;2024-01-27T01:29:17;47.78;;;44.03;;
54897;SDS011;40800;52.704;6.398;2024-01-27T01:31:43;47.75;;;43.58;;
54897;SDS011;40800;52.704;6.398;2024-01-27T01:34:08;44.92;;;41.65;;
54897;SDS011;40800;52.704;6.398;2024-01-27T01:36:34;44.38;;;40.75;;
54897;SDS011;40800;52.704;6.398;2024-01-27T01:39:00;44.38;;;40.85;;
54897;SDS011;40800;52.704;6.398;2024-01-27T01:41:25;45.15;;;41.25;;
54897;SDS011;40800;52.704;6.398;2024-01-27T01:43:51;43.97;;;40.53;;
54897;SDS011;40800;52.704;6.398;2024-01-27T01:46:17;43.97;;;39.88;;
54897;SDS011;40800;52.704;6.398;2024-01-27T01:48:42;43.30;;;39.83;;
54897;SDS011;40800;52.704;6.398;2024-01-27T01:51:08;43.97;;;40.00;;
54897;SDS011;40800;52.704;6.398;2024-01-27T01:53:34;43.13;;;39.50;;
54897;SDS011;40800;52.704;6.398;2024-01-27T01:55:59;42.70;;;39.10;;
54897;SDS011;40800;52.704;6.398;2024-01-27T01:58:26;42.70;;;39.00;;
54897;SDS011;40800;52.704;6.398;2024-01-27T02:00:59;42.58;;;39.13;;
54897;SDS011;40800;52.704;6.398;2024-01-27T02:03:27;42.30;;;39.35;;
54897;SDS011;40800;52.704;6.398;2024-01-27T02:05:54;42.65;;;39.22;;
54897;SDS011;40800;52.704;6.398;2024-01-27T02:08:20;43.55;;;39.80;;
54897;SDS011;40800;52.704;6.398;2024-01-27T02:10:46;41.85;;;38.40;;
54897;SDS011;40800;52.704;6.398;2024-01-27T02:13:21;41.55;;;38.13;;
54897;SDS011;40800;52.704;6.398;2024-01-27T02:15:48;42.33;;;39.00;;
54897;SDS011;40800;52.704;6.398;2024-01-27T02:20:40;42.38;;;39.08;;
54897;SDS011;40800;52.704;6.398;2024-01-27T02:23:06;44.65;;;40.55;;
54897;SDS011;40800;52.704;6.398;2024-01-27T02:25:32;43.67;;;40.15;;
54897;SDS011;40800;52.704;6.398;2024-01-27T02:27:58;44.67;;;41.10;;
54897;SDS011;40800;52.704;6.398;2024-01-27T02:30:23;43.05;;;39.65;;
54897;SDS011;40800;52.704;6.398;2024-01-27T02:32:49;43.13;;;39.53;;
54897;SDS011;40800;52.704;6.398;2024-01-27T02:35:15;44.20;;;40.92;;
54897;SDS011;40800;52.704;6.398;2024-01-27T02:37:41;42.97;;;39.50;;
54897;SDS011;40800;52.704;6.398;2024-01-27T02:40:07;42.47;;;38.72;;
54897;SDS011;40800;52.704;6.398;2024-01-27T02:42:34;45.10;;;40.95;;
54897;SDS011;40800;52.704;6.398;2024-01-27T02:45:01;45.07;;;41.57;;
54897;SDS011;40800;52.704;6.398;2024-01-27T02:47:27;45.70;;;42.17;;
54897;SDS011;40800;52.704;6.398;2024-01-27T02:49:52;45.95;;;42.05;;
54897;SDS011;40800;52.704;6.398;2024-01-27T02:52:18;44.20;;;40.13;;
54897;SDS011;40800;52.704;6.398;2024-01-27T02:54:44;45.97;;;41.85;;
54897;SDS011;40800;52.704;6.398;2024-01-27T02:57:09;46.72;;;42.30;;
54897;SDS011;40800;52.704;6.398;2024-01-27T02:59:35;46.13;;;42.42;;
54897;SDS011;40800;52.704;6.398;2024-01-27T03:02:01;44.85;;;40.67;;
54897;SDS011;40800;52.704;6.398;2024-01-27T03:04:26;44.33;;;40.63;;
54897;SDS011;40800;52.704;6.398;2024-01-27T03:06:52;45.67;;;41.90;;
54897;SDS011;40800;52.704;6.398;2024-01-27T03:09:17;44.28;;;40.90;;
54897;SDS011;40800;52.704;6.398;2024-01-27T03:11:43;44.80;;;41.03;;
54897;SDS011;40800;52.704;6.398;2024-01-27T03:14:08;44.63;;;41.20;;
54897;SDS011;40800;52.704;6.398;2024-01-27T03:16:35;45.15;;;41.58;;
54897;SDS011;40800;52.704;6.398;2024-01-27T03:19:01;44.60;;;40.78;;
54897;SDS011;40800;52.704;6.398;2024-01-27T03:21:27;45.63;;;41.72;;
54897;SDS011;40800;52.704;6.398;2024-01-27T03:23:52;45.40;;;41.88;;
54897;SDS011;40800;52.704;6.398;2024-01-27T03:26:18;46.42;;;42.42;;
54897;SDS011;40800;52.704;6.398;2024-01-27T03:28:43;47.92;;;43.83;;
54897;SDS011;40800;52.704;6.398;2024-01-27T03:31:09;46.50;;;42.50;;
54897;SDS011;40800;52.704;6.398;2024-01-27T03:33:34;46.38;;;42.35;;
54897;SDS011;40800;52.704;6.398;2024-01-27T03:36:00;45.45;;;41.70;;
54897;SDS011;40800;52.704;6.398;2024-01-27T03:38:25;44.05;;;40.72;;
54897;SDS011;40800;52.704;6.398;2024-01-27T03:40:51;44.95;;;41.53;;
54897;SDS011;40800;52.704;6.398;2024-01-27T03:43:17;44.53;;;40.67;;
54897;SDS011;40800;52.704;6.398;2024-01-27T03:45:42;42.00;;;38.60;;
54897;SDS011;40800;52.704;6.398;2024-01-27T03:48:08;43.90;;;40.05;;
54897;SDS011;40800;52.704;6.398;2024-01-27T03:50:33;44.25;;;40.53;;
54897;SDS011;40800;52.704;6.398;2024-01-27T03:52:59;42.03;;;38.85;;
54897;SDS011;40800;52.704;6.398;2024-01-27T03:55:24;42.28;;;38.40;;
54897;SDS011;40800;52.704;6.398;2024-01-27T03:57:50;42.55;;;39.17;;
54897;SDS011;40800;52.704;6.398;2024-01-27T04:00:16;42.70;;;39.00;;
54897;SDS011;40800;52.704;6.398;2024-01-27T04:02:41;43.00;;;38.97;;
54897;SDS011;40800;52.704;6.398;2024-01-27T04:05:07;41.80;;;38.38;;
54897;SDS011;40800;52.704;6.398;2024-01-27T04:07:33;42.28;;;38.42;;
54897;SDS011;40800;52.704;6.398;2024-01-27T04:09:58;45.35;;;41.47;;
54897;SDS011;40800;52.704;6.398;2024-01-27T04:12:24;44.47;;;40.20;;
54897;SDS011;40800;52.704;6.398;2024-01-27T04:14:49;43.25;;;39.75;;
54897;SDS011;40800;52.704;6.398;2024-01-27T04:17:15;43.67;;;39.78;;
54897;SDS011;40800;52.704;6.398;2024-01-27T04:19:40;44.28;;;40.35;;
54897;SDS011;40800;52.704;6.398;2024-01-27T04:22:06;43.15;;;39.67;;
54897;SDS011;40800;52.704;6.398;2024-01-27T04:24:32;44.50;;;40.92;;
54897;SDS011;40800;52.704;6.398;2024-01-27T04:26:58;45.45;;;41.72;;
54897;SDS011;40800;52.704;6.398;2024-01-27T04:29:24;43.83;;;40.33;;
54897;SDS011;40800;52.704;6.398;2024-01-27T04:31:49;44.17;;;40.47;;
54897;SDS011;40800;52.704;6.398;2024-01-27T04:34:15;43.22;;;39.88;;
54897;SDS011;40800;52.704;6.398;2024-01-27T04:36:41;45.13;;;41.75;;
54897;SDS011;40800;52.704;6.398;2024-01-27T04:39:08;45.08;;;41.75;;
54897;SDS011;40800;52.704;6.398;2024-01-27T04:41:34;45.60;;;42.08;;
54897;SDS011;40800;52.704;6.398;2024-01-27T04:44:07;45.28;;;41.63;;
54897;SDS011;40800;52.704;6.398;2024-01-27T04:46:33;44.70;;;41.42;;
54897;SDS011;40800;52.704;6.398;2024-01-27T04:48:59;46.90;;;43.47;;
54897;SDS011;40800;52.704;6.398;2024-01-27T04:51:24;45.28;;;41.60;;
54897;SDS011;40800;52.704;6.398;2024-01-27T04:53:50;45.15;;;41.63;;
54897;SDS011;40800;52.704;6.398;2024-01-27T04:56:15;48.10;;;43.30;;
54897;SDS011;40800;52.704;6.398;2024-01-27T04:58:41;46.85;;;43.13;;
54897;SDS011;40800;52.704;6.398;2024-01-27T05:01:07;46.53;;;42.80;;
54897;SDS011;40800;52.704;6.398;2024-01-27T05:03:33;47.88;;;43.42;;
54897;SDS011;40800;52.704;6.398;2024-01-27T05:05:59;46.40;;;42.60;;
54897;SDS011;40800;52.704;6.398;2024-01-27T05:08:24;48.13;;;43.88;;
54897;SDS011;40800;52.704;6.398;2024-01-27T05:10:50;47.80;;;43.83;;
54897;SDS011;40800;52.704;6.398;2024-01-27T05:13:16;47.33;;;43.60;;
54897;SDS011;40800;52.704;6.398;2024-01-27T05:15:41;48.22;;;44.40;;
54897;SDS011;40800;52.704;6.398;2024-01-27T05:18:07;49.92;;;46.35;;
54897;SDS011;40800;52.704;6.398;2024-01-27T05:20:32;52.33;;;47.80;;
54897;SDS011;40800;52.704;6.398;2024-01-27T05:22:58;48.90;;;44.85;;
54897;SDS011;40800;52.704;6.398;2024-01-27T05:25:23;47.70;;;43.30;;
54897;SDS011;40800;52.704;6.398;2024-01-27T05:27:49;48.22;;;44.25;;
54897;SDS011;40800;52.704;6.398;2024-01-27T05:30:15;48.22;;;43.90;;
54897;SDS011;40800;52.704;6.398;2024-01-27T05:32:41;47.03;;;43.22;;
54897;SDS011;40800;52.704;6.398;2024-01-27T05:35:06;46.00;;;42.45;;
54897;SDS011;40800;52.704;6.398;2024-01-27T05:37:33;47.70;;;43.58;;
54897;SDS011;40800;52.704;6.398;2024-01-27T05:39:58;47.63;;;43.50;;
54897;SDS011;40800;52.704;6.398;2024-01-27T05:42:24;46.40;;;42.13;;
54897;SDS011;40800;52.704;6.398;2024-01-27T05:44:49;45.75;;;41.90;;
54897;SDS011;40800;52.704;6.398;2024-01-27T05:47:15;46.38;;;42.28;;
54897;SDS011;40800;52.704;6.398;2024-01-27T05:49:41;46.63;;;42.80;;
54897;SDS011;40800;52.704;6.398;2024-01-27T05:52:06;46.08;;;41.95;;
54897;SDS011;40800;52.704;6.398;2024-01-27T05:54:32;47.95;;;44.00;;
54897;SDS011;40800;52.704;6.398;2024-01-27T05:56:58;47.00;;;43.25;;
54897;SDS011;40800;52.704;6.398;2024-01-27T05:59:23;48.90;;;43.88;;
54897;SDS011;40800;52.704;6.398;2024-01-27T06:01:49;47.38;;;43.67;;
54897;SDS011;40800;52.704;6.398;2024-01-27T06:04:15;47.97;;;44.25;;
54897;SDS011;40800;52.704;6.398;2024-01-27T06:06:40;48.50;;;44.05;;
54897;SDS011;40800;52.704;6.398;2024-01-27T06:09:06;49.03;;;44.85;;
54897;SDS011;40800;52.704;6.398;2024-01-27T06:11:36;49.45;;;44.95;;
54897;SDS011;40800;52.704;6.398;2024-01-27T06:14:02;49.42;;;44.97;;
54897;SDS011;40800;52.704;6.398;2024-01-27T06:16:27;49.67;;;45.05;;
54897;SDS011;40800;52.704;6.398;2024-01-27T06:18:53;48.92;;;44.33;;
54897;SDS011;40800;52.704;6.398;2024-01-27T06:21:19;49.07;;;44.60;;
54897;SDS011;40800;52.704;6.398;2024-01-27T06:23:45;49.27;;;44.80;;
54897;SDS011;40800;52.704;6.398;2024-01-27T06:26:12;50.13;;;45.78;;
54897;SDS011;40800;52.704;6.398;2024-01-27T06:28:38;50.63;;;45.95;;
54897;SDS011;40800;52.704;6.398;2024-01-27T06:31:04;51.78;;;46.97;;
54897;SDS011;40800;52.704;6.398;2024-01-27T06:33:30;49.77;;;45.53;;
54897;SDS011;40800;52.704;6.398;2024-01-27T06:35:57;51.13;;;46.28;;
54897;SDS011;40800;52.704;6.398;2024-01-27T06:38:22;49.97;;;45.22;;
54897;SDS011;40800;52.704;6.398;2024-01-27T06:40:48;51.78;;;47.22;;
54897;SDS011;40800;52.704;6.398;2024-01-27T06:43:13;51.83;;;47.40;;
54897;SDS011;40800;52.704;6.398;2024-01-27T06:45:39;53.17;;;48.90;;
54897;SDS011;40800;52.704;6.398;2024-01-27T06:48:05;50.30;;;45.85;;
54897;SDS011;40800;52.704;6.398;2024-01-27T06:50:32;50.88;;;46.05;;
54897;SDS011;40800;52.704;6.398;2024-01-27T06:52:58;50.20;;;46.03;;
54897;SDS011;40800;52.704;6.398;2024-01-27T06:55:24;49.55;;;44.97;;
54897;SDS011;40800;52.704;6.398;2024-01-27T06:57:50;49.90;;;46.03;;
54897;SDS011;40800;52.704;6.398;2024-01-27T07:00:16;51.58;;;47.22;;
54897;SDS011;40800;52.704;6.398;2024-01-27T07:02:42;52.88;;;48.63;;
54897;SDS011;40800;52.704;6.398;2024-01-27T07:05:08;54.65;;;49.75;;
54897;SDS011;40800;52.704;6.398;2024-01-27T07:07:34;54.22;;;49.83;;
54897;SDS011;40800;52.704;6.398;2024-01-27T07:09:59;53.53;;;48.33;;
54897;SDS011;40800;52.704;6.398;2024-01-27T07:12:25;51.05;;;46.38;;
54897;SDS011;40800;52.704;6.398;2024-01-27T07:14:51;49.00;;;44.75;;
54897;SDS011;40800;52.704;6.398;2024-01-27T07:17:17;51.75;;;46.70;;
54897;SDS011;40800;52.704;6.398;2024-01-27T07:19:43;49.63;;;45.30;;
54897;SDS011;40800;52.704;6.398;2024-01-27T07:22:08;48.58;;;44.03;;
54897;SDS011;40800;52.704;6.398;2024-01-27T07:24:34;51.40;;;46.00;;
54897;SDS011;40800;52.704;6.398;2024-01-27T07:27:00;54.53;;;49.00;;
54897;SDS011;40800;52.704;6.398;2024-01-27T07:29:26;58.55;;;53.30;;
54897;SDS011;40800;52.704;6.398;2024-01-27T07:31:52;63.65;;;57.50;;
54897;SDS011;40800;52.704;6.398;2024-01-27T07:34:18;59.03;;;53.10;;
54897;SDS011;40800;52.704;6.398;2024-01-27T07:36:44;91.13;;;83.30;;
54897;SDS011;40800;52.704;6.398;2024-01-27T07:39:10;66.47;;;59.42;;
54897;SDS011;40800;52.704;6.398;2024-01-27T07:41:35;70.10;;;62.78;;
54897;SDS011;40800;52.704;6.398;2024-01-27T07:44:07;69.60;;;62.28;;
54897;SDS011;40800;52.704;6.398;2024-01-27T07:46:35;67.03;;;60.20;;
54897;SDS011;40800;52.704;6.398;2024-01-27T07:49:01;70.80;;;63.33;;
54897;SDS011;40800;52.704;6.398;2024-01-27T07:53:53;66.50;;;59.75;;
54897;SDS011;40800;52.704;6.398;2024-01-27T07:56:19;67.63;;;60.78;;
54897;SDS011;40800;52.704;6.398;2024-01-27T07:58:44;66.63;;;59.67;;
54897;SDS011;40800;52.704;6.398;2024-01-27T08:01:10;64.85;;;58.53;;
54897;SDS011;40800;52.704;6.398;2024-01-27T08:03:39;63.08;;;57.45;;
54897;SDS011;40800;52.704;6.398;2024-01-27T08:06:05;64.82;;;58.55;;
54897;SDS011;40800;52.704;6.398;2024-01-27T08:08:32;63.33;;;56.83;;
54897;SDS011;40800;52.704;6.398;2024-01-27T08:10:58;62.60;;;56.83;;
54897;SDS011;40800;52.704;6.398;2024-01-27T08:13:23;64.18;;;57.63;;
54897;SDS011;40800;52.704;6.398;2024-01-27T08:15:49;65.65;;;59.35;;
54897;SDS011;40800;52.704;6.398;2024-01-27T08:18:14;64.30;;;58.20;;
54897;SDS011;40800;52.704;6.398;2024-01-27T08:20:40;62.05;;;56.20;;
54897;SDS011;40800;52.704;6.398;2024-01-27T08:23:06;64.32;;;57.80;;
54897;SDS011;40800;52.704;6.398;2024-01-27T08:25:31;62.15;;;56.53;;
54897;SDS011;40800;52.704;6.398;2024-01-27T08:27:57;62.10;;;56.53;;
54897;SDS011;40800;52.704;6.398;2024-01-27T08:30:22;60.92;;;55.58;;
54897;SDS011;40800;52.704;6.398;2024-01-27T08:32:48;60.53;;;55.25;;
54897;SDS011;40800;52.704;6.398;2024-01-27T08:35:13;60.42;;;55.17;;
54897;SDS011;40800;52.704;6.398;2024-01-27T08:37:39;60.63;;;55.10;;
54897;SDS011;40800;52.704;6.398;2024-01-27T08:40:05;62.10;;;56.55;;
54897;SDS011;40800;52.704;6.398;2024-01-27T08:42:31;61.45;;;55.92;;
54897;SDS011;40800;52.704;6.398;2024-01-27T08:44:57;61.03;;;55.88;;
54897;SDS011;40800;52.704;6.398;2024-01-27T08:47:22;61.78;;;56.20;;
54897;SDS011;40800;52.704;6.398;2024-01-27T08:49:48;61.38;;;56.05;;
54897;SDS011;40800;52.704;6.398;2024-01-27T08:52:14;61.05;;;55.90;;
54897;SDS011;40800;52.704;6.398;2024-01-27T08:54:40;60.97;;;55.35;;
54897;SDS011;40800;52.704;6.398;2024-01-27T08:57:06;60.42;;;55.42;;
54897;SDS011;40800;52.704;6.398;2024-01-27T08:59:31;63.22;;;57.45;;
54897;SDS011;40800;52.704;6.398;2024-01-27T09:01:58;59.88;;;55.00;;
54897;SDS011;40800;52.704;6.398;2024-01-27T09:04:24;62.00;;;56.42;;
54897;SDS011;40800;52.704;6.398;2024-01-27T09:06:49;59.47;;;55.00;;
54897;SDS011;40800;52.704;6.398;2024-01-27T09:09:15;62.60;;;57.30;;
54897;SDS011;40800;52.704;6.398;2024-01-27T09:11:42;63.08;;;57.45;;
54897;SDS011;40800;52.704;6.398;2024-01-27T09:14:08;63.67;;;58.17;;
54897;SDS011;40800;52.704;6.398;2024-01-27T09:16:33;64.60;;;58.70;;
54897;SDS011;40800;52.704;6.398;2024-01-27T09:18:59;63.63;;;58.33;;
54897;SDS011;40800;52.704;6.398;2024-01-27T09:21:25;63.35;;;58.35;;
54897;SDS011;40800;52.704;6.398;2024-01-27T09:23:56;64.60;;;59.30;;
54897;SDS011;40800;52.704;6.398;2024-01-27T09:26:22;64.60;;;59.47;;
54897;SDS011;40800;52.704;6.398;2024-01-27T09:28:48;65.90;;;60.58;;
54897;SDS011;40800;52.704;6.398;2024-01-27T09:31:20;67.15;;;61.47;;
54897;SDS011;40800;52.704;6.398;2024-01-27T09:33:48;65.97;;;60.92;;
54897;SDS011;40800;52.704;6.398;2024-01-27T09:36:17;66.22;;;60.88;;
54897;SDS011;40800;52.704;6.398;2024-01-27T09:38:43;66.55;;;60.92;;
54897;SDS011;40800;52.704;6.398;2024-01-27T09:41:09;67.43;;;62.10;;
54897;SDS011;40800;52.704;6.398;2024-01-27T09:43:37;68.88;;;63.17;;
54897;SDS011;40800;52.704;6.398;2024-01-27T09:46:02;67.50;;;62.40;;
54897;SDS011;40800;52.704;6.398;2024-01-27T09:48:29;68.30;;;62.95;;
54897;SDS011;40800;52.704;6.398;2024-01-27T09:50:55;69.35;;;63.63;;
54897;SDS011;40800;52.704;6.398;2024-01-27T09:53:23;67.28;;;62.30;;
54897;SDS011;40800;52.704;6.398;2024-01-27T09:55:49;69.22;;;63.45;;
54897;SDS011;40800;52.704;6.398;2024-01-27T09:58:15;67.90;;;62.75;;
54897;SDS011;40800;52.704;6.398;2024-01-27T10:00:41;66.97;;;61.78;;
54897;SDS011;40800;52.704;6.398;2024-01-27T10:03:07;67.20;;;62.08;;
54897;SDS011;40800;52.704;6.398;2024-01-27T10:05:33;67.63;;;62.65;;
54897;SDS011;40800;52.704;6.398;2024-01-27T10:08:00;68.07;;;63.08;;
54897;SDS011;40800;52.704;6.398;2024-01-27T10:10:25;67.22;;;62.28;;
54897;SDS011;40800;52.704;6.398;2024-01-27T10:12:51;64.90;;;60.05;;
54897;SDS011;40800;52.704;6.398;2024-01-27T10:15:21;66.10;;;61.15;;
54897;SDS011;40800;52.704;6.398;2024-01-27T10:17:47;65.72;;;61.03;;
54897;SDS011;40800;52.704;6.398;2024-01-27T10:20:13;64.28;;;59.72;;
54897;SDS011;40800;52.704;6.398;2024-01-27T10:22:41;65.35;;;60.40;;
54897;SDS011;40800;52.704;6.398;2024-01-27T10:25:08;64.70;;;60.00;;
54897;SDS011;40800;52.704;6.398;2024-01-27T10:27:34;65.75;;;60.83;;
54897;SDS011;40800;52.704;6.398;2024-01-27T10:30:00;66.63;;;61.55;;
54897;SDS011;40800;52.704;6.398;2024-01-27T10:32:27;62.20;;;57.63;;
54897;SDS011;40800;52.704;6.398;2024-01-27T10:37:28;61.40;;;57.13;;
54897;SDS011;40800;52.704;6.398;2024-01-27T10:40:03;60.88;;;56.90;;
54897;SDS011;40800;52.704;6.398;2024-01-27T10:42:32;59.85;;;55.60;;
54897;SDS011;40800;52.704;6.398;2024-01-27T10:44:59;59.88;;;55.78;;
54897;SDS011;40800;52.704;6.398;2024-01-27T10:47:29;57.53;;;53.70;;
54897;SDS011;40800;52.704;6.398;2024-01-27T10:49:56;56.08;;;52.00;;
54897;SDS011;40800;52.704;6.398;2024-01-27T10:52:23;52.95;;;49.28;;
54897;SDS011;40800;52.704;6.398;2024-01-27T10:55:00;49.67;;;46.17;;
54897;SDS011;40800;52.704;6.398;2024-01-27T10:57:28;48.67;;;45.10;;
54897;SDS011;40800;52.704;6.398;2024-01-27T10:59:55;46.58;;;43.05;;
54897;SDS011;40800;52.704;6.398;2024-01-27T11:04:48;45.78;;;42.67;;
54897;SDS011;40800;52.704;6.398;2024-01-27T11:07:16;42.63;;;39.83;;
54897;SDS011;40800;52.704;6.398;2024-01-27T11:09:44;43.70;;;40.33;;
54897;SDS011;40800;52.704;6.398;2024-01-27T11:12:12;42.30;;;39.25;;
54897;SDS011;40800;52.704;6.398;2024-01-27T11:14:38;42.70;;;39.23;;
54897;SDS011;40800;52.704;6.398;2024-01-27T11:17:04;39.83;;;36.67;;
54897;SDS011;40800;52.704;6.398;2024-01-27T11:19:29;37.38;;;34.70;;
54897;SDS011;40800;52.704;6.398;2024-01-27T11:22:01;36.72;;;33.47;;
54897;SDS011;40800;52.704;6.398;2024-01-27T11:24:28;35.08;;;32.15;;
54897;SDS011;40800;52.704;6.398;2024-01-27T11:27:03;36.03;;;33.30;;
54897;SDS011;40800;52.704;6.398;2024-01-27T11:29:30;32.83;;;29.85;;
54897;SDS011;40800;52.704;6.398;2024-01-27T11:31:59;31.45;;;28.73;;
54897;SDS011;40800;52.704;6.398;2024-01-27T11:34:26;30.60;;;28.05;;
54897;SDS011;40800;52.704;6.398;2024-01-27T11:36:52;30.65;;;27.77;;
54897;SDS011;40800;52.704;6.398;2024-01-27T11:39:27;32.67;;;29.58;;
54897;SDS011;40800;52.704;6.398;2024-01-27T11:42:07;30.05;;;27.55;;
54897;SDS011;40800;52.704;6.398;2024-01-27T11:44:36;28.40;;;25.80;;
54897;SDS011;40800;52.704;6.398;2024-01-27T11:47:02;26.48;;;24.00;;
54897;SDS011;40800;52.704;6.398;2024-01-27T11:49:28;27.45;;;24.98;;
54897;SDS011;40800;52.704;6.398;2024-01-27T11:51:54;26.08;;;23.95;;
54897;SDS011;40800;52.704;6.398;2024-01-27T11:54:20;26.40;;;24.23;;
54897;SDS011;40800;52.704;6.398;2024-01-27T11:56:45;26.23;;;23.63;;
54897;SDS011;40800;52.704;6.398;2024-01-27T11:59:11;24.60;;;22.40;;
54897;SDS011;40800;52.704;6.398;2024-01-27T12:01:37;23.75;;;21.55;;
54897;SDS011;40800;52.704;6.398;2024-01-27T12:04:07;26.10;;;23.58;;
54897;SDS011;40800;52.704;6.398;2024-01-27T12:06:34;25.52;;;23.13;;
54897;SDS011;40800;52.704;6.398;2024-01-27T12:09:00;24.02;;;21.73;;
54897;SDS011;40800;52.704;6.398;2024-01-27T12:11:25;24.08;;;21.55;;
54897;SDS011;40800;52.704;6.398;2024-01-27T12:13:52;23.23;;;20.85;;
54897;SDS011;40800;52.704;6.398;2024-01-27T12:16:18;21.98;;;19.80;;
54897;SDS011;40800;52.704;6.398;2024-01-27T12:18:44;21.83;;;18.92;;
54897;SDS011;40800;52.704;6.398;2024-01-27T12:21:10;21.92;;;19.63;;
54897;SDS011;40800;52.704;6.398;2024-01-27T12:23:36;20.65;;;18.48;;
54897;SDS011;40800;52.704;6.398;2024-01-27T12:26:14;20.35;;;18.45;;
54897;SDS011;40800;52.704;6.398;2024-01-27T12:28:39;20.08;;;17.95;;
54897;SDS011;40800;52.704;6.398;2024-01-27T12:31:05;20.15;;;17.58;;
54897;SDS011;40800;52.704;6.398;2024-01-27T12:33:31;19.92;;;18.02;;
54897;SDS011;40800;52.704;6.398;2024-01-27T12:35:56;19.83;;;17.05;;
54897;SDS011;40800;52.704;6.398;2024-01-27T12:38:22;19.58;;;17.60;;
54897;SDS011;40800;52.704;6.398;2024-01-27T12:40:48;20.92;;;17.58;;
54897;SDS011;40800;52.704;6.398;2024-01-27T12:43:13;19.13;;;16.92;;
54897;SDS011;40800;52.704;6.398;2024-01-27T12:45:40;20.83;;;16.23;;
54897;SDS011;40800;52.704;6.398;2024-01-27T12:48:05;19.88;;;16.20;;
54897;SDS011;40800;52.704;6.398;2024-01-27T12:50:31;19.55;;;15.52;;
54897;SDS011;40800;52.704;6.398;2024-01-27T12:52:58;17.85;;;15.77;;
54897;SDS011;40800;52.704;6.398;2024-01-27T12:55:24;17.15;;;14.98;;
54897;SDS011;40800;52.704;6.398;2024-01-27T12:57:49;16.45;;;14.80;;
54897;SDS011;40800;52.704;6.398;2024-01-27T13:00:15;21.30;;;15.07;;
54897;SDS011;40800;52.704;6.398;2024-01-27T13:02:42;16.83;;;13.63;;
54897;SDS011;40800;52.704;6.398;2024-01-27T13:05:08;17.88;;;13.60;;
54897;SDS011;40800;52.704;6.398;2024-01-27T13:07:34;16.45;;;13.98;;
54897;SDS011;40800;52.704;6.398;2024-01-27T13:10:00;17.42;;;13.93;;
54897;SDS011;40800;52.704;6.398;2024-01-27T13:12:27;14.98;;;13.32;;
54897;SDS011;40800;52.704;6.398;2024-01-27T13:14:52;15.50;;;13.17;;
54897;SDS011;40800;52.704;6.398;2024-01-27T13:17:20;17.13;;;13.55;;
54897;SDS011;40800;52.704;6.398;2024-01-27T13:19:45;17.15;;;12.85;;
54897;SDS011;40800;52.704;6.398;2024-01-27T13:22:12;19.30;;;13.40;;
54897;SDS011;40800;52.704;6.398;2024-01-27T13:24:37;16.08;;;12.55;;
54897;SDS011;40800;52.704;6.398;2024-01-27T13:27:03;17.52;;;12.57;;
54897;SDS011;40800;52.704;6.398;2024-01-27T13:29:30;15.07;;;12.52;;
54897;SDS011;40800;52.704;6.398;2024-01-27T13:34:23;19.48;;;12.10;;
54897;SDS011;40800;52.704;6.398;2024-01-27T13:36:49;17.20;;;11.93;;
54897;SDS011;40800;52.704;6.398;2024-01-27T13:39:14;18.25;;;11.57;;
54897;SDS011;40800;52.704;6.398;2024-01-27T13:41:40;18.55;;;12.60;;
54897;SDS011;40800;52.704;6.398;2024-01-27T13:44:06;20.75;;;12.38;;
54897;SDS011;40800;52.704;6.398;2024-01-27T13:46:31;34.65;;;13.15;;
54897;SDS011;40800;52.704;6.398;2024-01-27T13:48:57;22.80;;;13.05;;
54897;SDS011;40800;52.704;6.398;2024-01-27T13:51:22;18.70;;;11.63;;
54897;SDS011;40800;52.704;6.398;2024-01-27T13:53:48;19.17;;;11.80;;
54897;SDS011;40800;52.704;6.398;2024-01-27T13:56:13;18.48;;;11.30;;
54897;SDS011;40800;52.704;6.398;2024-01-27T13:58:39;19.00;;;10.80;;
54897;SDS011;40800;52.704;6.398;2024-01-27T14:01:06;16.08;;;11.50;;
54897;SDS011;40800;52.704;6.398;2024-01-27T14:03:33;20.60;;;10.88;;
54897;SDS011;40800;52.704;6.398;2024-01-27T14:05:58;16.55;;;10.40;;
54897;SDS011;40800;52.704;6.398;2024-01-27T14:08:24;19.80;;;11.43;;
54897;SDS011;40800;52.704;6.398;2024-01-27T14:10:50;17.75;;;11.43;;
54897;SDS011;40800;52.704;6.398;2024-01-27T14:13:17;17.80;;;11.05;;
54897;SDS011;40800;52.704;6.398;2024-01-27T14:15:43;16.15;;;11.07;;
54897;SDS011;40800;52.704;6.398;2024-01-27T14:18:09;14.98;;;11.20;;
54897;SDS011;40800;52.704;6.398;2024-01-27T14:20:39;16.15;;;11.40;;
54897;SDS011;40800;52.704;6.398;2024-01-27T14:23:04;15.05;;;11.23;;
54897;SDS011;40800;52.704;6.398;2024-01-27T14:25:30;19.10;;;11.93;;
54897;SDS011;40800;52.704;6.398;2024-01-27T14:27:55;14.98;;;10.85;;